Time;durP1;ratioP1;P1;durP2;ratioP2;P2;SDS_P1;SDS_P2;PMS_P1;PMS_P2;Temp;Humidity;BMP_temperature;BMP_pressure;BME280_temperature;BME280_humidity;BME280_pressure;Samples;Min_cycle;Max_cycle;Signal;HPM_P1;HPM_P2
2022/07/14 00:00:09;;;;;;;22.42;7.07;;;;;;;;;;6279026;22;20038;-81
2022/07/14 00:02:35;;;;;;;12.25;3.63;;;;;;;;;;6278451;22;20020;-85
2022/07/14 00:05:01;;;;;;;10.05;2.30;;;;;;;;;;6277891;22;20074;-86
2022/07/14 00:07:27;;;;;;;11.05;2.47;;;;;;;;;;6278135;22;20075;-83
2022/07/14 00:09:54;;;;;;;9.60;2.33;;;;;;;;;;6227772;22;20019;-82
2022/07/14 00:12:21;;;;;;;9.60;2.95;;;;;;;;;;6280204;22;20023;-85
2022/07/14 00:14:47;;;;;;;14.68;2.67;;;;;;;;;;6282881;22;20339;-82
2022/07/14 00:17:15;;;;;;;10.88;2.22;;;;;;;;;;6254641;22;20028;-79
2022/07/14 00:19:55;;;;;;;22.60;3.65;;;;;;;;;;6228950;22;20023;-84
2022/07/14 00:22:21;;;;;;;13.48;2.53;;;;;;;;;;6280996;22;20034;-86
2022/07/14 00:24:47;;;;;;;8.43;2.45;;;;;;;;;;6228914;22;20051;-86
2022/07/14 00:27:13;;;;;;;12.25;2.80;;;;;;;;;;6279947;22;20015;-84
2022/07/14 00:29:39;;;;;;;13.02;3.60;;;;;;;;;;6280619;22;20027;-85
2022/07/14 00:32:08;;;;;;;10.45;3.10;;;;;;;;;;6278454;22;20034;-82
2022/07/14 00:34:35;;;;;;;14.48;3.03;;;;;;;;;;6250116;22;20122;-81
2022/07/14 00:37:01;;;;;;;28.77;7.90;;;;;;;;;;6278803;22;20024;-82
2022/07/14 00:39:27;;;;;;;15.25;4.15;;;;;;;;;;6280065;22;20023;-84
2022/07/14 00:41:53;;;;;;;12.52;4.05;;;;;;;;;;6252571;22;20043;-83
2022/07/14 00:44:19;;;;;;;15.32;3.72;;;;;;;;;;6251822;22;20019;-82
2022/07/14 00:46:45;;;;;;;13.60;2.38;;;;;;;;;;6279266;22;20047;-85
2022/07/14 00:49:11;;;;;;;11.52;2.80;;;;;;;;;;6252289;22;20020;-84
2022/07/14 00:51:37;;;;;;;12.07;2.50;;;;;;;;;;6279426;22;20019;-82
2022/07/14 00:54:04;;;;;;;10.48;3.00;;;;;;;;;;6225766;22;20015;-81
2022/07/14 00:56:30;;;;;;;7.85;3.28;;;;;;;;;;6253326;22;20020;-81
2022/07/14 00:58:56;;;;;;;19.25;5.30;;;;;;;;;;6252033;22;20023;-85
2022/07/14 01:01:22;;;;;;;25.52;7.28;;;;;;;;;;6251896;22;20517;-84
2022/07/14 01:03:48;;;;;;;13.68;4.70;;;;;;;;;;6277385;22;20019;-85
2022/07/14 01:06:14;;;;;;;22.77;4.55;;;;;;;;;;6252033;22;20020;-80
2022/07/14 01:08:49;;;;;;;14.10;3.90;;;;;;;;;;6279451;22;20020;-86
2022/07/14 01:11:15;;;;;;;7.93;3.42;;;;;;;;;;6280134;22;20030;-84
2022/07/14 01:13:42;;;;;;;14.35;3.42;;;;;;;;;;6253051;22;20019;-84
2022/07/14 01:16:08;;;;;;;7.25;2.70;;;;;;;;;;6280556;22;20094;-86
2022/07/14 01:18:36;;;;;;;10.00;2.90;;;;;;;;;;6280631;22;20028;-82
2022/07/14 01:21:02;;;;;;;17.35;4.13;;;;;;;;;;6278700;22;20348;-85
2022/07/14 01:23:28;;;;;;;19.30;4.95;;;;;;;;;;6252801;22;20034;-85
2022/07/14 01:26:12;;;;;;;12.80;3.80;;;15.00;99.90;;;;;;6280938;22;20020;-84
2022/07/14 01:28:38;;;;;;;16.02;4.97;;;;;;;;;;6280560;22;20050;-86
2022/07/14 01:31:05;;;;;;;13.02;4.85;;;;;;;;;;6280910;22;20063;-83
2022/07/14 01:33:31;;;;;;;19.98;5.18;;;;;;;;;;6279979;22;20475;-84
2022/07/14 01:35:57;;;;;;;15.35;4.53;;;;;;;;;;6252067;22;20339;-85
2022/07/14 01:38:26;;;;;;;13.60;3.05;;;;;;;;;;6281068;22;20054;-85
2022/07/14 01:40:52;;;;;;;16.10;4.22;;;;;;;;;;6253789;22;20102;-85
2022/07/14 01:43:21;;;;;;;16.10;4.45;;;;;;;;;;6279714;22;20339;-84
2022/07/14 01:45:50;;;;;;;14.60;3.53;;;;;;;;;;6280378;22;20047;-85
2022/07/14 01:48:16;;;;;;;16.10;3.88;;;;;;;;;;6252026;22;20446;-84
2022/07/14 01:50:42;;;;;;;10.43;3.40;;;;;;;;;;6279622;22;20015;-86
2022/07/14 01:53:09;;;;;;;16.77;3.50;;;;;;;;;;6281021;22;20332;-85
2022/07/14 01:55:35;;;;;;;13.85;3.90;;;;;;;;;;6252080;22;20031;-79
2022/07/14 01:58:02;;;;;;;12.05;4.15;;;;;;;;;;6203185;22;20085;-84
2022/07/14 02:00:28;;;;;;;13.57;3.53;;;;;;;;;;6278839;22;20023;-85
2022/07/14 02:02:57;;;;;;;13.43;3.97;;;;;;;;;;6253839;22;20095;-85
2022/07/14 02:05:48;;;;;;;8.80;3.75;;;;;;;;;;6280130;22;20024;-86
2022/07/14 02:08:16;;;;;;;11.95;3.78;;;;;;;;;;6254518;22;20079;-87
2022/07/14 02:13:33;;;;;;;10.35;2.97;;;;;;;;;;6252509;22;20027;-84
2022/07/14 02:15:59;;;;;;;15.10;4.75;;;;;;;;;;6280052;22;20016;-86
2022/07/14 02:18:26;;;;;;;17.38;4.07;;;;;;;;;;6253458;22;20396;-86
2022/07/14 02:20:55;;;;;;;9.38;3.45;;;;;;;;;;6229100;22;20019;-83
2022/07/14 02:23:28;;;;;;;11.70;3.85;;;;;;;;;;6280865;22;20098;-86
2022/07/14 02:26:04;;;;;;;15.63;3.72;;;;;;;;;;6280639;22;20019;-82
2022/07/14 02:28:30;;;;;;;12.02;3.33;;;;;;;;;;6280181;22;20521;-79
2022/07/14 02:30:56;;;;;;;10.57;3.67;;;;;;;;;;6254359;22;20446;-87
2022/07/14 02:33:22;;;;;;;10.05;3.75;;;;;;;;;;6281180;22;20018;-87
2022/07/14 02:35:48;;;;;;;14.15;3.80;;;;;;;;;;6254145;22;20019;-83
2022/07/14 02:38:14;;;;;;;17.75;3.72;;;;;;;;;;6279842;22;20062;-82
2022/07/14 02:40:40;;;;;;;12.07;3.70;;;;;;;;;;6254108;22;20019;-83
2022/07/14 02:43:06;;;;;;;11.10;3.38;;;;;;;;;;6280834;22;20065;-83
2022/07/14 02:45:32;;;;;;;14.23;3.85;;;;;;;;;;6251116;22;20012;-83
2022/07/14 02:47:59;;;;;;;16.83;3.65;;;;;;;;;;6200180;22;20343;-82
2022/07/14 02:50:25;;;;;;;14.20;3.72;;;;;;;;;;6250568;22;20031;-81
2022/07/14 02:52:51;;;;;;;12.90;3.97;;;;;;;;;;6225530;22;20015;-84
2022/07/14 02:55:18;;;;;;;11.30;3.55;;;;;;;;;;6276989;22;20426;-85
2022/07/14 02:57:44;;;;;;;12.55;3.97;;;;;;;;;;6251059;22;20117;-84
2022/07/14 03:00:11;;;;;;;10.82;3.65;;;;;;;;;;6278314;22;20019;-84
2022/07/14 03:02:37;;;;;;;11.13;3.38;;;;;;;;;;6278260;22;20345;-84
2022/07/14 03:05:04;;;;;;;12.82;3.33;;;;;;;;;;6278270;22;20095;-82
2022/07/14 03:07:30;;;;;;;16.38;4.63;;;;;;;;;;6252475;22;20028;-85
2022/07/14 03:09:56;;;;;;;9.95;3.45;;;;;;;;;;6279258;22;20080;-85
2022/07/14 03:12:22;;;;;;;20.00;4.20;;;;;;;;;;6279652;22;20012;-83
2022/07/14 03:14:57;;;;;;;11.05;3.58;;;;;;;;;;6278396;22;20020;-83
2022/07/14 03:17:24;;;;;;;7.05;3.10;;;;;;;;;;6252470;22;20019;-83
2022/07/14 03:20:01;;;;;;;;;;;;;;;;;;;;;
2022/07/14 03:22:27;;;;;;;7.50;3.75;;;;;;;;;;6279481;22;20079;-85
2022/07/14 03:24:54;;;;;;;12.80;4.38;;;;;;;;;;6279615;22;20011;-85
2022/07/14 03:27:20;;;;;;;15.73;3.80;;;;;;;;;;6278912;22;20016;-84
2022/07/14 03:29:46;;;;;;;10.93;3.75;;;;;;;;;;6251156;22;20063;-83
2022/07/14 03:32:12;;;;;;;11.73;3.70;;;;;;;;;;6277833;22;20054;-84
2022/07/14 03:34:41;;;;;;;12.38;3.80;;;;;;;;;;6279412;22;20023;-82
2022/07/14 03:37:07;;;;;;;10.10;3.40;;;;;;;;;;6277834;22;20089;-84
2022/07/14 03:39:42;;;;;;;15.00;4.47;;;;;;;;;;6277780;22;20078;-85
2022/07/14 03:42:08;;;;;;;11.55;3.60;;;;;;;;;;6278014;22;20015;-82
2022/07/14 03:44:34;;;;;;;20.45;4.20;;;;;;;;;;6277289;22;21296;-82
2022/07/14 03:47:00;;;;;;;12.73;3.63;;;;;;;;;;6276692;22;20071;-84
2022/07/14 03:49:26;;;;;;;11.35;3.80;;;;;;;;;;6277550;22;20012;-84
2022/07/14 03:51:52;;;;;;;9.23;3.85;;;;;;;;;;6251205;22;20016;-85
2022/07/14 03:54:19;;;;;;;13.38;3.67;;;;;;;;;;6251168;22;20023;-86
2022/07/14 03:56:51;;;;;;;9.52;3.88;;;;;;;;;;6278937;22;20077;-82
2022/07/14 03:59:17;;;;;;;9.70;3.80;;;;;;;;;;6250536;22;20023;-85
2022/07/14 04:01:43;;;;;;;14.55;3.55;;;;;;;;;;6251430;22;20019;-82
2022/07/14 04:04:09;;;;;;;20.23;4.68;;;;;;;;;;6226722;22;20015;-84
2022/07/14 04:06:35;;;;;;;15.82;3.50;;;;;;;;;;6278551;22;20022;-83
2022/07/14 04:09:02;;;;;;;9.75;3.08;;;;;;;;;;6279236;22;20102;-85
2022/07/14 04:11:31;;;;;;;10.57;4.15;;;;;;;;;;6279681;22;20028;-84
2022/07/14 04:13:57;;;;;;;12.02;3.70;;;;;;;;;;6278591;22;20046;-83
2022/07/14 04:16:24;;;;;;;14.93;3.97;;;;;;;;;;6277543;22;20019;-80
2022/07/14 04:18:50;;;;;;;9.25;3.22;;;;;;;;;;6200593;22;20058;-85
2022/07/14 04:21:16;;;;;;;13.68;3.60;;;;;;;;;;6278719;22;20023;-85
2022/07/14 04:23:43;;;;;;;17.35;4.03;;;;;;;;;;6277690;22;20083;-82
2022/07/14 04:26:10;;;;;;;10.30;3.92;;;;;;;;;;6250373;22;20087;-83
2022/07/14 04:28:37;;;;;;;12.23;3.63;;;;;;;;;;6278007;22;20030;-85
2022/07/14 04:31:03;;;;;;;11.52;3.00;;;;;;;;;;6275291;22;20023;-83
2022/07/14 04:33:29;;;;;;;11.10;3.08;;;;;;;;;;6276694;22;20041;-81
2022/07/14 04:35:55;;;;;;;11.52;3.20;;;;;;;;;;6277941;22;20042;-83
2022/07/14 04:38:21;;;;;;;10.07;2.88;;;;;;;;;;6252178;22;20022;-85
2022/07/14 04:41:00;;;;;;;10.45;3.20;;;;;;;;;;6277452;22;20602;-86
2022/07/14 04:43:26;;;;;;;11.02;3.20;;;;;;;;;;6275397;22;20016;-84
2022/07/14 04:45:56;;;;;;;10.18;3.05;;;;;;;;;;6279400;22;20016;-82
2022/07/14 04:48:22;;;;;;;10.65;3.35;;;;;;;;;;6252378;22;20020;-81
2022/07/14 04:53:36;;;;;;;13.35;3.00;;;;;;;;;;6282142;22;20035;-87
2022/07/14 04:56:02;;;;;;;13.88;3.40;;;;;;;;;;6281965;22;20604;-85
2022/07/14 04:58:47;;;;;;;6.28;2.50;;;;;;;;;;6251963;22;20094;-87
2022/07/14 05:01:17;;;;;;;9.50;2.47;;;;;;;;;;6281198;22;20444;-84
2022/07/14 05:03:45;;;;;;;9.60;3.00;;;;;;;;;;6276716;22;20102;-86
2022/07/14 05:06:12;;;;;;;12.27;2.90;;;;;;;;;;6253463;22;20058;-84
2022/07/14 05:08:41;;;;;;;5.18;2.47;;;;;;;;;;6251676;22;20020;-84
2022/07/14 05:11:16;;;;;;;6.88;2.58;;;;;;;;;;6280257;22;20023;-84
2022/07/14 05:13:43;;;;;;;7.85;2.40;;;;;;;;;;6253624;22;20070;-86
2022/07/14 05:16:09;;;;;;;10.18;2.58;;;;;;;;;;6277803;22;20020;-84
2022/07/14 05:18:35;;;;;;;11.02;2.60;;;;;;;;;;6253685;22;20031;-85
2022/07/14 05:21:01;;;;;;;11.93;2.95;;;;;;;;;;6251323;22;20592;-86
2022/07/14 05:23:46;;;;;;;8.13;2.80;;;;;;;;;;6254571;22;20496;-87
2022/07/14 05:26:13;;;;;;;11.77;2.50;;;;;;;;;;6257098;22;20016;-87
2022/07/14 05:28:40;;;;;;;12.98;2.95;;;;;;;;;;6203277;23;20027;-87
2022/07/14 05:31:09;;;;;;;7.03;2.25;;;;;;;;;;6253013;23;20028;-86
2022/07/14 05:33:36;;;;;;;8.65;2.58;;;;;;;;;;6226010;23;20020;-88
2022/07/14 05:36:02;;;;;;;10.68;2.60;;;;;;;;;;6226906;23;20023;-82
2022/07/14 05:38:31;;;;;;;8.95;2.55;;;;;;;;;;6199735;23;20072;-85
2022/07/14 05:40:59;;;;;;;13.35;2.80;;;;;;;;;;6201366;23;20024;-85
2022/07/14 05:43:26;;;;;;;9.50;3.03;;;;;;;;;;6200538;23;20024;-87
2022/07/14 05:45:52;;;;;;;9.18;2.80;;;;;;;;;;6201000;23;20027;-85
2022/07/14 05:48:38;;;;;;;13.00;3.35;;;;;;;;;;6201996;23;20447;-84
2022/07/14 05:51:08;;;;;;;11.32;2.70;;;;;;;;;;6250507;23;20020;-85
2022/07/14 05:53:35;;;;;;;8.43;2.40;;;;;;;;;;6199213;23;20020;-85
2022/07/14 05:56:02;;;;;;;7.40;2.10;;;;;;;;;;6249836;23;20016;-84
2022/07/14 05:58:28;;;;;;;8.27;2.33;;;;;;;;;;6250084;23;20026;-82
2022/07/14 06:00:55;;;;;;;11.95;2.45;;;;;;;;;;6219564;23;20069;-83
2022/07/14 06:03:21;;;;;;;7.93;2.17;;;;;;;;;;6198384;23;20020;-84
2022/07/14 06:05:47;;;;;;;9.75;1.80;;;;;;;;;;6247704;23;20020;-81
2022/07/14 06:08:13;;;;;;;8.55;1.40;;;;;;;;;;6220202;23;20016;-82
2022/07/14 06:10:39;;;;;;;4.65;1.30;;;;;;;;;;6249797;23;20087;-84
2022/07/14 06:13:06;;;;;;;4.82;1.73;;;;;;;;;;6196698;23;20460;-83
2022/07/14 06:15:32;;;;;;;5.20;1.17;;;;;;;;;;6199705;23;20465;-82
2022/07/14 06:17:58;;;;;;;8.77;1.63;;;;;;;;;;6222651;23;20031;-84
2022/07/14 06:20:24;;;;;;;9.30;1.50;;;;;;;;;;6251711;23;20031;-84
2022/07/14 06:22:50;;;;;;;9.63;2.13;;;;;;;;;;6250237;23;20020;-83
2022/07/14 06:25:42;;;;;;;4.38;1.38;;;;;;;;;;6239393;22;20044;-81
2022/07/14 06:31:36;;;;;;;7.47;1.33;;;;;;;;;;6219031;23;20021;-83
2022/07/14 06:37:25;;;;;;;6.60;1.27;;;;;;;;;;6217677;23;20024;-83
2022/07/14 06:39:51;;;;;;;10.32;1.13;;;;;;;;;;6215909;23;20047;-82
2022/07/14 06:42:17;;;;;;;6.03;1.00;;;;;;;;;;6189777;23;20449;-81
2022/07/14 06:44:44;;;;;;;8.95;1.05;;;;;;;;;;6217572;23;20091;-82
2022/07/14 06:47:11;;;;;;;8.82;1.17;;;;;;;;;;6164160;23;20031;-81
2022/07/14 06:49:37;;;;;;;5.80;1.40;;;;;;;;;;6189828;23;20019;-81
2022/07/14 06:52:04;;;;;;;3.08;0.90;;;;;;;;;;6188108;23;20416;-80
2022/07/14 06:54:36;;;;;;;7.60;1.20;;;;;;;;;;6216862;23;20440;-79
2022/07/14 06:57:02;;;;;;;8.73;1.10;;;;;;;;;;6188089;23;20096;-81
2022/07/14 06:59:28;;;;;;;6.70;0.90;;;;;;;;;;6139869;23;20024;-82
2022/07/14 07:01:54;;;;;;;5.55;1.10;;;;;;;;;;6214349;23;20070;-80
2022/07/14 07:04:36;;;;;;;3.08;1.08;;;;;;;;;;6214928;23;20016;-80
2022/07/14 07:07:03;;;;;;;5.10;1.10;;;;;;;;;;6213160;23;20107;-81
2022/07/14 07:09:29;;;;;;;5.32;1.02;;;;;;;;;;6215214;23;20059;-80
2022/07/14 07:11:55;;;;;;;3.60;1.15;;;;;;;;;;6216811;23;20031;-81
2022/07/14 07:14:22;;;;;;;8.70;1.15;;;;;;;;;;6216994;23;20051;-80
2022/07/14 07:16:49;;;;;;;4.30;1.02;;;;;;;;;;6218046;23;20028;-81
2022/07/14 07:19:15;;;;;;;6.82;1.10;;;;;;;;;;6217891;23;20098;-84
2022/07/14 07:21:43;;;;;;;5.63;1.40;;;;;;;;;;6164739;23;20024;-80
2022/07/14 07:24:12;;;;;;;4.07;0.98;;;;;;;;;;6192571;23;20020;-85
2022/07/14 07:26:39;;;;;;;6.38;0.85;;;;;;;;;;6191878;23;20031;-82
2022/07/14 07:29:07;;;;;;;5.55;1.13;;;;;;;;;;6218650;23;20028;-85
2022/07/14 07:31:33;;;;;;;4.90;0.73;;;;;;;;;;6194247;23;20072;-83
2022/07/14 07:37:09;;;;;;;4.68;1.02;;;;;;;;;;6250531;22;20054;-84
2022/07/14 07:39:36;;;;;;;6.07;1.00;;;;;;;;;;6283421;22;20027;-83
2022/07/14 07:42:02;;;;;;;3.75;0.73;;;;;;;;;;6283959;22;20030;-84
2022/07/14 07:44:30;;;;;;;4.82;0.90;;;;;;;;;;6253908;22;20030;-82
2022/07/14 07:46:57;;;;;;;5.00;0.80;;;;;;;;;;6254878;22;20023;-82
2022/07/14 07:49:24;;;;;;;5.00;0.90;;;;;;;;;;6227160;22;20015;-83
2022/07/14 07:51:56;;;;;;;2.88;0.80;;;;;;;;;;6281296;22;20067;-83
2022/07/14 07:54:22;;;;;;;4.30;0.70;;;;;;;;;;6280530;22;20015;-83
2022/07/14 07:56:51;;;;;;;5.97;0.95;;;;;;;;;;6279503;22;20405;-83
2022/07/14 07:59:17;;;;;;;3.30;0.70;;;;;;;;;;6252242;22;20440;-81
2022/07/14 08:01:43;;;;;;;5.75;1.02;;;;;;;;;;6284438;22;20073;-81
2022/07/14 08:04:09;;;;;;;5.90;1.00;;;;;;;;;;6258171;22;20101;-80
2022/07/14 08:06:35;;;;;;;8.88;1.10;;;;;;;;;;6253751;22;20023;-80
2022/07/14 08:09:06;;;;;;;2.70;1.00;;;;;;;;;;6253990;22;20011;-81
2022/07/14 08:11:32;;;;;;;3.50;0.70;;;;;;;;;;6254459;22;20067;-81
2022/07/14 08:14:05;;;;;;;4.65;1.13;;;;;;;;;;6282440;22;20020;-80
2022/07/14 08:16:31;;;;;;;3.55;0.80;;;;;;;;;;6281731;22;20073;-82
2022/07/14 08:18:57;;;;;;;3.10;0.55;;;;;;;;;;6282465;22;20023;-81
2022/07/14 08:21:23;;;;;;;4.32;0.75;;;;;;;;;;6280910;22;20016;-82
2022/07/14 08:23:50;;;;;;;3.42;0.80;;;;;;;;;;6283869;22;20031;-81
2022/07/14 08:26:16;;;;;;;4.88;1.00;;;;;;;;;;6279631;22;20067;-82
2022/07/14 08:28:49;;;;;;;2.83;1.02;;;;;;;;;;6282932;22;20047;-80
2022/07/14 08:31:16;;;;;;;4.32;1.02;;;;;;;;;;6230577;22;20026;-80
2022/07/14 08:33:42;;;;;;;1.83;0.47;;;;;;;;;;6282582;22;20040;-80
2022/07/14 08:36:08;;;;;;;7.75;1.40;;;;;;;;;;6255793;22;20090;-80
2022/07/14 08:38:34;;;;;;;3.83;0.65;;;;;;;;;;6256633;22;20077;-80
2022/07/14 08:41:00;;;;;;;6.80;1.05;;;;;;;;;;6259151;22;20012;-81
2022/07/14 08:43:27;;;;;;;2.83;0.75;;;;;;;;;;6282287;22;20030;-80
2022/07/14 08:45:53;;;;;;;2.35;0.70;;;;;;;;;;6283276;22;20030;-83
2022/07/14 08:48:19;;;;;;;3.63;0.93;;;;;;;;;;6282975;22;20071;-83
2022/07/14 08:50:55;;;;;;;6.80;1.08;;;;;;;;;;6258195;22;20098;-82
2022/07/14 08:53:30;;;;;;;2.47;0.73;;;;;;;;;;6282216;22;20015;-83
2022/07/14 08:55:59;;;;;;;4.20;0.68;;;;;;;;;;6285538;22;20012;-80
2022/07/14 08:58:29;;;;;;;6.18;0.90;;;;;;;;;;6257902;22;20019;-82
2022/07/14 09:00:55;;;;;;;1.85;0.68;;;;;;;;;;6283735;22;20352;-79
2022/07/14 09:03:21;;;;;;;5.95;1.17;;;;;;;;;;6277398;22;20387;-80
2022/07/14 09:05:47;;;;;;;4.20;0.80;;;;;;;;;;6249885;22;20034;-77
2022/07/14 09:08:14;;;;;;;2.85;0.75;;;;;;;;;;6276346;22;20020;-79
2022/07/14 09:10:41;;;;;;;4.88;1.10;;;;;;;;;;6273940;22;20050;-80
2022/07/14 09:13:20;;;;;;;2.85;0.82;;;;;;;;;;6276107;22;20042;-79
2022/07/14 09:15:47;;;;;;;3.67;0.88;;;;;;;;;;6274733;22;20113;-79
2022/07/14 09:18:33;;;;;;;2.15;0.52;;;;;;;;;;6275888;22;20601;-79
2022/07/14 09:21:18;;;;;;;8.93;1.50;;;;;;;;;;6274291;22;20023;-79
2022/07/14 09:23:45;;;;;;;3.78;0.98;;;;;;;;;;6271821;22;20127;-80
2022/07/14 09:26:12;;;;;;;3.53;0.88;;;;;;;;;;6273704;22;20055;-79
2022/07/14 09:28:42;;;;;;;6.88;0.70;;;;;;;;;;6273649;22;20073;-79
2022/07/14 09:31:24;;;;;;;2.00;0.63;;;;;;;;;;6274414;22;20023;-79
2022/07/14 09:33:51;;;;;;;4.65;0.93;;;;;;;;;;6273002;22;20093;-80
2022/07/14 09:36:22;;;;;;;3.67;0.88;;;;;;;;;;6274291;22;20004;-78
2022/07/14 09:38:49;;;;;;;2.53;0.70;;;;;;;;;;6274534;22;20020;-79
2022/07/14 09:41:15;;;;;;;4.10;0.90;;;;;;;;;;6275750;22;20094;-78
2022/07/14 09:44:01;;;;;;;4.25;0.73;;;;;;;;;;6249003;22;20023;-79
2022/07/14 09:46:47;;;;;;;3.83;0.80;;;;;;;;;;6276780;22;20026;-78
2022/07/14 09:49:14;;;;;;;4.07;0.77;;;;;;;;;;6249132;22;20102;-79
2022/07/14 09:52:00;;;;;;;3.13;0.77;;;;;;;;;;6276250;22;20039;-79
2022/07/14 09:54:38;;;;;;;6.15;0.85;;;;;;;;;;6275426;22;20034;-79
2022/07/14 09:57:08;;;;;;;2.95;1.08;;;;;;;;;;6276971;22;20080;-79
2022/07/14 09:59:47;;;;;;;3.63;1.15;;;;;;;;;;6250085;22;20031;-79
2022/07/14 10:02:19;;;;;;;4.57;1.08;;;;;;;;;;6278479;22;20016;-80
2022/07/14 10:04:46;;;;;;;2.53;1.10;;;;;;;;;;6278348;22;20100;-78
2022/07/14 10:07:12;;;;;;;6.57;1.00;;;;;;;;;;6247386;22;20364;-79
2022/07/14 10:09:59;;;;;;;6.03;0.80;;;;;;;;;;6275303;22;20016;-79
2022/07/14 10:12:27;;;;;;;4.75;0.85;;;;;;;;;;6246186;22;20110;-80
2022/07/14 10:14:53;;;;;;;2.67;0.70;;;;;;;;;;6273981;22;20063;-79
2022/07/14 10:17:20;;;;;;;3.30;0.88;;;;;;;;;;6275657;22;20016;-80
2022/07/14 10:19:47;;;;;;;4.07;0.85;;;;;;;;;;6273259;22;20019;-78
2022/07/14 10:22:14;;;;;;;4.78;1.00;;;;;;;;;;6275705;22;20071;-79
2022/07/14 10:24:40;;;;;;;3.13;0.82;;;;;;;;;;6275665;22;20022;-79
2022/07/14 10:27:07;;;;;;;5.05;0.65;;;;;;;;;;6247918;22;20023;-78
2022/07/14 10:29:33;;;;;;;4.00;0.65;;;;;;;;;;6270678;22;20015;-79
2022/07/14 10:32:08;;;;;;;4.00;0.80;;;;;;;;;;6271445;22;20027;-77
2022/07/14 10:34:47;;;;;;;3.22;0.80;;;;;;;;;;6246080;22;20016;-79
2022/07/14 10:37:25;;;;;;;3.92;0.82;;;;;;;;;;6272108;22;20026;-80
2022/07/14 10:40:03;;;;;;;5.22;0.88;;;;;;;;;;6271396;22;20150;-80
2022/07/14 10:42:43;;;;;;;2.95;0.75;;;;;;;;;;6271333;22;20047;-78
2022/07/14 10:45:09;;;;;;;1.98;0.60;;;;;;;;;;6272344;22;20114;-79
2022/07/14 10:47:43;;;;;;;8.18;0.80;;;;;;;;;;6270799;22;20016;-80
2022/07/14 10:50:09;;;;;;;;;;;;;;;;;;6273935;22;20070;-79
2022/07/14 10:52:36;;;;;;;1.63;0.80;;;;;;;;;;6274259;22;19923;-80
2022/07/14 10:55:10;;;;;;;5.05;0.95;;;;;;;;;;6271397;22;20019;-79
2022/07/14 10:57:36;;;;;;;4.38;0.90;;;;;;;;;;6272659;22;20019;-79
2022/07/14 11:00:03;;;;;;;5.47;1.02;;;;;;;;;;6244491;22;20098;-79
2022/07/14 11:02:31;;;;;;;2.45;0.73;;;;;;;;;;6273733;22;20356;-79
2022/07/14 11:05:08;;;;;;;3.17;0.80;;;;;;;;;;6274055;22;20114;-77
2022/07/14 11:07:40;;;;;;;2.70;0.77;;;;;;;;;;6274799;22;20012;-79
2022/07/14 11:10:19;;;;;;;3.83;0.60;;;;;;;;;;6274774;22;20353;-79
2022/07/14 11:13:03;;;;;;;4.35;0.80;;;;;;;;;;6271675;22;20023;-79
2022/07/14 11:15:36;;;;;;;6.43;0.70;;;;;;;;;;6274411;22;20027;-79
2022/07/14 11:18:21;;;;;;;5.30;0.70;;;;;;;;;;6273133;22;20054;-79
2022/07/14 11:21:05;;;;;;;5.00;0.90;;;;;;;;;;6219781;22;20035;-79
2022/07/14 11:23:39;;;;;;;4.63;0.82;;;;;;;;;;6272723;22;20028;-79
2022/07/14 11:26:25;;;;;;;5.35;1.27;;;;;;;;;;6244966;22;20024;-80
2022/07/14 11:28:52;;;;;;;4.88;0.93;;;;;;;;;;6273436;22;20062;-80
2022/07/14 11:31:19;;;;;;;2.88;0.68;;;;;;;;;;6269767;22;20015;-79
2022/07/14 11:36:39;;;;;;;8.45;0.95;;;;;;;;;;6247208;22;20063;-78
2022/07/14 11:39:18;;;;;;;4.90;1.35;;;;;;;;;;6267198;22;20027;-77
2022/07/14 11:42:06;;;;;;;3.67;0.80;;;;;;;;;;6269264;22;20030;-79
2022/07/14 11:44:36;;;;;;;7.20;0.98;;;;;;;;;;6269013;22;20090;-80
2022/07/14 11:47:03;;;;;;;2.38;1.05;;;;;;;;;;6272926;22;20025;-80
2022/07/14 11:49:31;;;;;;;2.80;0.77;;;;;;;;;;6273279;22;20020;-80
2022/07/14 11:51:58;;;;;;;6.22;0.95;;;;;;;;;;6219694;22;20019;-80
2022/07/14 11:54:25;;;;;;;2.80;0.75;;;;;;;;;;6246454;22;20015;-79
2022/07/14 11:57:01;;;;;;;4.15;1.25;;;;;;;;;;6271544;22;20324;-79
2022/07/14 11:59:28;;;;;;;5.50;1.10;;;;;;;;;;6270832;22;20039;-80
2022/07/14 12:02:05;;;;;;;4.30;0.70;;;;;;;;;;6269362;22;20119;-79
2022/07/14 12:04:31;;;;;;;2.70;0.90;;;;;;;;;;6243469;22;20019;-81
2022/07/14 12:06:57;;;;;;;5.55;1.10;;;;;;;;;;6241880;22;20289;-80
2022/07/14 12:09:32;;;;;;;7.57;0.77;;;;;;;;;;6271952;22;20098;-79
2022/07/14 12:11:58;;;;;;;7.25;0.80;;;;;;;;;;6273364;22;20072;-80
2022/07/14 12:14:24;;;;;;;3.83;0.77;;;;;;;;;;6269620;22;20042;-80
2022/07/14 12:16:51;;;;;;;3.75;0.85;;;;;;;;;;6219065;22;20340;-81
2022/07/14 12:19:30;;;;;;;4.55;0.80;;;;;;;;;;6243647;22;20319;-80
2022/07/14 12:22:03;;;;;;;4.65;1.27;;;;;;;;;;6273138;22;20360;-80
2022/07/14 12:24:31;;;;;;;6.03;1.10;;;;;;;;;;6270845;22;20027;-80
2022/07/14 12:27:02;;;;;;;1.08;0.65;;;;;;;;;;6271675;22;20020;-78
2022/07/14 12:29:28;;;;;;;3.63;1.02;;;;;;;;;;6243440;22;20019;-77
2022/07/14 12:31:57;;;;;;;2.70;1.00;;;;;;;;;;6271012;22;20023;-79
2022/07/14 12:34:23;;;;;;;3.85;1.17;;;;;;;;;;6270765;22;20020;-79
2022/07/14 12:36:50;;;;;;;6.25;1.20;;;;;;;;;;6270944;22;20012;-79
2022/07/14 12:39:16;;;;;;;5.05;0.90;;;;;;;;;;6271514;22;20063;-80
2022/07/14 12:41:45;;;;;;;6.50;1.35;;;;;;;;;;6270549;22;20049;-79
2022/07/14 12:44:11;;;;;;;7.15;1.42;;;;;;;;;;6243691;22;20061;-80
2022/07/14 12:46:40;;;;;;;4.97;0.85;;;;;;;;;;6268095;22;20023;-80
2022/07/14 12:49:07;;;;;;;4.88;1.27;;;;;;;;;;6270482;22;20385;-81
2022/07/14 12:51:33;;;;;;;4.78;0.90;;;;;;;;;;6269536;22;20165;-79
2022/07/14 12:54:01;;;;;;;6.88;1.10;;;;;;;;;;6269649;22;20031;-80
2022/07/14 12:56:28;;;;;;;4.70;1.35;;;;;;;;;;6270132;22;20208;-79
2022/07/14 12:58:54;;;;;;;4.63;0.90;;;;;;;;;;6245064;22;20101;-80
2022/07/14 13:01:21;;;;;;;4.05;1.00;;;;;;;;;;6244016;22;20038;-78
2022/07/14 13:03:54;;;;;;;4.57;1.00;;;;;;;;;;6269374;22;20047;-79
2022/07/14 13:06:20;;;;;;;4.38;0.80;;;;;;;;;;6269487;22;20098;-78
2022/07/14 13:08:46;;;;;;;3.58;0.75;;;;;;;;;;6270313;22;20019;-79
2022/07/14 13:11:13;;;;;;;4.50;0.88;;;;;;;;;;6269991;22;20012;-80
2022/07/14 13:13:41;;;;;;;6.68;1.20;;;;;;;;;;6268969;22;20456;-79
2022/07/14 13:16:19;;;;;;;5.85;1.00;;;;;;;;;;6270344;22;20039;-80
2022/07/14 13:19:04;;;;;;;6.32;1.48;;;;;;;;;;6267593;22;20049;-79
2022/07/14 13:21:47;;;;;;;5.07;1.00;;;;;;;;;;6266974;22;20464;-79
2022/07/14 13:24:13;;;;;;;4.05;0.73;;;;;;;;;;6265484;22;20089;-79
2022/07/14 13:26:39;;;;;;;4.60;0.93;;;;;;;;;;6265049;22;20023;-80
2022/07/14 13:29:05;;;;;;;3.47;0.95;;;;;;;;;;6191937;22;20099;-79
2022/07/14 13:31:31;;;;;;;3.80;1.23;;;;;;;;;;6243341;22;20019;-80
2022/07/14 13:34:01;;;;;;;2.78;0.70;;;;;;;;;;6270670;22;20024;-79
2022/07/14 13:36:29;;;;;;;6.82;0.80;;;;;;;;;;6236699;23;20043;-79
2022/07/14 13:38:55;;;;;;;6.80;1.20;;;;;;;;;;6238525;23;20016;-80
2022/07/14 13:41:22;;;;;;;3.05;0.80;;;;;;;;;;6237983;23;20016;-79
2022/07/14 13:43:50;;;;;;;2.67;1.00;;;;;;;;;;6242006;23;20023;-80
2022/07/14 13:46:17;;;;;;;3.78;1.08;;;;;;;;;;6241516;23;20397;-80
2022/07/14 13:48:44;;;;;;;1.67;0.75;;;;;;;;;;6242026;23;20016;-80
2022/07/14 13:53:55;;;;;;;4.82;1.02;;;;;;;;;;6240762;23;20020;-79
2022/07/14 13:56:21;;;;;;;4.03;0.90;;;;;;;;;;6241383;23;20093;-80
2022/07/14 13:58:47;;;;;;;4.90;1.08;;;;;;;;;;6213761;23;20039;-80
2022/07/14 14:01:13;;;;;;;6.13;0.90;;;;;;;;;;6240766;23;20058;-78
2022/07/14 14:03:40;;;;;;;2.85;0.80;;;;;;;;;;6214979;23;20353;-78
2022/07/14 14:06:10;;;;;;;7.85;1.15;;;;;;;;;;6215584;23;20024;-80
2022/07/14 14:08:37;;;;;;;4.55;1.20;;;;;;;;;;6243482;23;20327;-80
2022/07/14 14:11:03;;;;;;;8.25;1.00;;;;;;;;;;6242419;23;20048;-79
2022/07/14 14:13:33;;;;;;;5.72;1.35;;;;;;;;;;6188809;23;20027;-80
2022/07/14 14:16:00;;;;;;;5.55;0.95;;;;;;;;;;6238687;23;20027;-79
2022/07/14 14:18:27;;;;;;;5.13;1.00;;;;;;;;;;6240856;23;20524;-79
2022/07/14 14:20:53;;;;;;;6.13;0.95;;;;;;;;;;6210836;23;20095;-79
2022/07/14 14:23:19;;;;;;;7.65;0.80;;;;;;;;;;6239983;23;20016;-79
2022/07/14 14:25:46;;;;;;;3.58;0.90;;;;;;;;;;6243041;23;20043;-79
2022/07/14 14:28:12;;;;;;;5.85;1.25;;;;;;;;;;6240831;23;21355;-79
2022/07/14 14:30:39;;;;;;;4.15;0.98;;;;;;;;;;6240859;23;20048;-79
2022/07/14 14:33:05;;;;;;;7.10;0.98;;;;;;;;;;6237282;23;20020;-79
2022/07/14 14:35:32;;;;;;;4.72;0.73;;;;;;;;;;6239761;23;20016;-79
2022/07/14 14:38:00;;;;;;;5.28;1.05;;;;;;;;;;6265880;22;20016;-80
2022/07/14 14:40:26;;;;;;;4.72;1.17;;;;;;;;;;6271038;22;20027;-78
2022/07/14 14:42:53;;;;;;;4.18;1.00;;;;;;;;;;6244675;22;20072;-79
2022/07/14 14:45:19;;;;;;;1.98;0.80;;;;;;;;;;6245861;22;20389;-79
2022/07/14 14:47:48;;;;;;;6.15;1.00;;;;;;;;;;6271554;22;20019;-80
2022/07/14 14:50:14;;;;;;;4.50;0.90;;;;;;;;;;6272867;22;20020;-80
2022/07/14 14:52:51;;;;;;;9.50;1.55;;;;;;;;;;6272222;22;20024;-82
2022/07/14 14:55:17;;;;;;;8.05;1.27;;;;;;;;;;6273797;22;20096;-79
2022/07/14 14:57:45;;;;;;;7.40;1.40;;;;;;;;;;6272635;22;20015;-80
2022/07/14 15:00:11;;;;;;;11.10;1.25;;;;;;;;;;6271993;22;20101;-80
2022/07/14 15:02:38;;;;;;;8.32;1.60;;;;;;;;;;6274391;22;20042;-79
2022/07/14 15:05:05;;;;;;;14.73;1.92;;;;;;;;;;6273670;22;20020;-79
2022/07/14 15:07:31;;;;;;;8.90;1.90;;;;;;;;;;6273817;22;20458;-81
2022/07/14 15:09:57;;;;;;;13.68;1.90;;;;;;;;;;6273910;22;20019;-80